Terminal Aerodrome Forecast
Issued by NWS

Home | Current Version | Previous Version | Text Only | Print | Product List | Glossary On
Versions: 1 2 3 4 5 6 7 8 9 10 11 12 13 14 15 16
000
FTUS42 KMLB 251700 RRA
TAFSUA
TAF
KSUA 251753Z 2518/2618 17016G25KT P6SM SCT012 SCT025
     FM251900 17009KT P6SM VCTS BKN030CB
      TEMPO 2519/2521 3SM TSRA BKN020CB
     FM260200 17010KT P6SM VCSH BKN020
     FM261200 23012KT P6SM VCSH BKN020=

USA.gov is the U.S. government's official web portal to all federal, state and local government web resources and services.